30 Max
17 km/h
8 Mini

LFMY 191800Z AUTO 14010KT 110V170 9999 SCT021 BKN026 BKN032 21/17 Q1010

TAF LFMY 181833Z 1818/1915 CNL